Allerton, Iowa
Current Conditions -  °F | °C
As of 10:55 AM on Sunday 23 Nov 2014 (Local Time) from KCNC Reporting Station
Haze Haze  
Wind Chill: 11°   Ceiling: 300
Heat Index: 11°   Visibility: 2mi
Dew Point: 11°   Wind: 8mph
Humidity: 100%   Direction: 160°SSE
Pressure: 29.47"   Gusts: NA
Location:  40.71°N, 93.37°W
Report Text: KCNC 231655Z AUTO 16007KT 2SM BR OVC003 11/11 A2947 RMK AO2
Loading
Personal Weather Stations






























Interactive Weather Map New forecast layout! Learn more

10-Day Weather Forecast

Advertisements
Track Severe Weather on mobile